Rembert, SC (29128)

10:44 PM EDT on April 29, 2017 (GMT -0400)
Pisgah Crossing | | Change Station

Elev 282 ft 34.15 °N, 80.47 °W | Updated 7 seconds ago

Clear
Clear
73.6 °F
Feels Like 73 °F
N
0.0
Wind Variable Wind from ESE
Gusts 0.0 mph

Today
High -- | Low -- °F
--% Chance of Precip.
Yesterday
High -- | Low -- °F
Precip. -- in
Pressure 30.15 in
Visibility 10.0 miles
Clouds Clear
Heat Index 73 °F
Dew Point 68 °F
Humidity 82%
Rainfall 0.00 in
Snow Depth Not available.
6:34 AM 8:04 PM
Waxing Crescent, 18% visible
METAR KSSC 300158Z AUTO 16007KT 10SM CLR 24/19 A3015 RMK AO2 SLP209 T02420192 $
Pressure 30.15 in
Visibility 10.0 miles
Clouds Clear
Heat Index 73 °F
Dew Point 68 °F
Humidity 82%
Rainfall 0.00 in
Snow Depth Not available.
6:34 AM 8:04 PM
Waxing Crescent, 18% visible
METAR KSSC 300158Z AUTO 16007KT 10SM CLR 24/19 A3015 RMK AO2 SLP209 T02420192 $

Get Severe Weather Alerts

Thanks for signing up!

Be on the lookout for a verification email in your inbox.

You'll start receiving the daily forecast at 8 AM.

×

10-Day Weather Forecast

Almanac

Astronomy

Apr. 29, 2017 Rise Set
Actual Time
Civil Twilight
Nautical Twilight
Astronomical Twilight
Moon
Length of Visible Light
Length of Day
Tomorrow will be .
, % of the Moon is Illuminated

Today's Extremes

State Highs State Lows

Community

WunderPhotos

WunderBlog® & News

Nearby

Air Quality

  Air Quality AQ Index Pollutant
Not available.

Snow Depth

Station Depth Elevation

Earthquake Activity

City Distance Mag. Time & Date
Minimum magnitude displayed is 2.5.

Coastal Water Temperatures

Place Temperature

Stations

Nearby Weather Stations

Station Location Temp. Windchill Dew Point Humidity Wind Precip. Elev Updated Type
                   

Watches & Warnings

There are currently no watches in effect.